createdAt,value
2018-02-11T05:29:43.119Z,92.70
2018-02-11T05:44:28.195Z,93.20
2018-02-11T05:47:04.028Z,93.20
2018-02-11T05:49:36.875Z,93.10
2018-02-11T05:52:08.248Z,93.10
2018-02-11T05:54:43.278Z,92.90
2018-02-11T05:57:20.683Z,92.60
2018-02-11T06:02:36.650Z,93.10
2018-02-11T06:05:08.338Z,93.20
2018-02-11T06:07:42.605Z,93.30
2018-02-11T06:10:20.183Z,93.30
2018-02-11T06:15:32.317Z,93.40
2018-02-11T06:18:08.427Z,93.40
2018-02-11T06:20:39.364Z,93.50
2018-02-11T06:23:10.658Z,93.40
2018-02-11T06:25:41.357Z,93.30
2018-02-11T06:28:14.139Z,93.50
2018-02-11T06:30:46.394Z,93.50
2018-02-11T06:33:16.751Z,93.80
2018-02-11T06:35:48.954Z,94.30
2018-02-11T06:38:19.710Z,93.90
2018-02-11T06:40:51.782Z,93.10
2018-02-11T06:43:21.898Z,92.90
2018-02-11T06:45:51.425Z,92.80
2018-02-11T06:48:20.958Z,92.80
2018-02-11T06:50:50.926Z,93.00
2018-02-11T06:53:53.032Z,93.00
2018-02-11T06:56:34.567Z,92.80
2018-02-11T06:59:30.131Z,92.30
2018-02-11T07:02:10.812Z,92.10
2018-02-11T07:07:37.856Z,91.50
2018-02-11T07:10:08.130Z,91.40
2018-02-11T07:12:37.516Z,91.40
2018-02-11T07:15:06.597Z,91.70
2018-02-11T07:17:35.446Z,91.30
2018-02-11T07:20:04.943Z,91.20
2018-02-11T07:22:34.038Z,91.20
2018-02-11T07:25:03.617Z,90.70
2018-02-11T07:27:36.962Z,90.80
2018-02-11T07:30:06.279Z,90.80
2018-02-11T07:32:35.374Z,91.00
2018-02-11T07:35:04.902Z,90.90
2018-02-11T07:37:34.716Z,89.40
2018-02-11T07:40:03.698Z,89.40
2018-02-11T07:42:32.725Z,89.40
2018-02-11T07:45:02.170Z,86.90
2018-02-11T07:47:31.169Z,82.70
2018-02-11T07:50:00.063Z,81.10
2018-02-11T07:52:29.606Z,75.20
2018-02-11T07:54:58.606Z,69.70
2018-02-11T07:57:27.305Z,66.10
2018-02-11T07:59:57.013Z,65.10
2018-02-11T08:02:26.834Z,64.90
2018-02-11T08:04:56.687Z,64.90
2018-02-11T08:07:25.479Z,60.50
2018-02-11T08:09:59.258Z,58.10
2018-02-11T08:12:29.539Z,60.20
2018-02-11T08:17:42.800Z,63.10
2018-02-11T08:20:11.678Z,63.20
2018-02-11T08:22:40.148Z,58.20
2018-02-11T08:25:08.662Z,56.30
2018-02-11T08:27:37.153Z,58.80
2018-02-11T08:30:06.830Z,50.40
2018-02-11T08:32:35.601Z,50.40
2018-02-11T08:35:04.424Z,44.00
2018-02-11T08:37:33.283Z,40.80
2018-02-11T08:40:01.801Z,42.50
2018-02-11T08:42:31.070Z,46.40
2018-02-11T08:44:59.771Z,46.40
2018-02-11T08:47:28.643Z,50.30
2018-02-11T08:49:57.309Z,51.60
2018-02-11T08:52:25.756Z,44.90
2018-02-11T09:01:54.755Z,36.20
2018-02-11T09:04:23.759Z,34.90
2018-02-11T09:06:52.549Z,35.10
2018-02-11T09:09:22.211Z,30.20
2018-02-11T09:11:51.637Z,30.30
2018-02-11T09:14:24.348Z,32.30
2018-02-11T09:16:52.923Z,29.90
2018-02-11T09:19:21.662Z,30.00
2018-02-11T09:21:51.234Z,28.70
2018-02-11T09:24:21.057Z,28.70
2018-02-11T09:30:22.775Z,28.50
2018-02-11T11:11:55.328Z,25.00
2018-02-11T11:28:54.173Z,27.50
2018-02-11T11:48:27.778Z,31.70
2018-02-11T11:51:29.786Z,32.00
2018-02-11T11:54:03.300Z,33.30
2018-02-11T11:56:33.237Z,31.30
2018-02-11T11:59:10.130Z,32.20
2018-02-11T12:01:49.933Z,31.10
2018-02-11T13:10:51.262Z,27.70
2018-02-11T13:13:20.102Z,27.80
2018-02-11T13:15:48.928Z,27.90
2018-02-11T13:18:17.203Z,27.90
2018-02-11T13:20:45.645Z,27.90
2018-02-11T14:14:58.978Z,34.70
2018-02-11T14:17:28.197Z,36.00
2018-02-11T14:19:56.611Z,36.00
2018-02-11T14:22:25.664Z,35.90
2018-02-11T14:24:54.238Z,35.90
2018-02-11T14:27:22.845Z,37.50
2018-02-11T14:29:54.399Z,35.30
2018-02-11T14:32:23.561Z,34.30
2018-02-11T14:34:52.221Z,35.60
2018-02-11T14:37:21.762Z,35.40
2018-02-11T14:39:51.938Z,35.70
2018-02-11T14:42:20.422Z,35.20
2018-02-11T14:44:49.637Z,34.50
2018-02-11T14:47:18.853Z,33.50
2018-02-11T14:49:47.353Z,33.50
2018-02-11T14:52:15.747Z,33.30
2018-02-11T14:54:44.118Z,34.40
2018-02-11T14:57:12.632Z,36.10
2018-02-11T14:59:41.185Z,37.00
2018-02-11T15:02:09.633Z,39.60
2018-02-11T15:04:38.353Z,42.50
2018-02-11T15:07:07.039Z,44.30
2018-02-11T15:09:36.604Z,46.90
2018-02-11T15:12:05.293Z,46.80
2018-02-11T15:14:34.070Z,47.60
2018-02-11T15:17:02.824Z,50.20
2018-02-11T15:19:31.528Z,51.80
2018-02-11T15:22:00.340Z,54.10
2018-02-11T15:24:29.055Z,53.80
2018-02-11T15:26:57.962Z,54.70
2018-02-11T15:29:27.508Z,56.20
2018-02-11T15:31:56.225Z,56.30
2018-02-11T15:34:24.933Z,57.40
2018-02-11T15:36:53.626Z,57.80
2018-02-11T15:39:23.135Z,61.00
2018-02-11T15:41:52.627Z,61.80
2018-02-11T15:44:22.073Z,63.20
2018-02-11T15:46:50.977Z,63.20
2018-02-11T15:49:19.649Z,62.90
2018-02-11T15:51:48.364Z,63.70
2018-02-11T15:54:17.059Z,65.00
2018-02-11T15:56:45.764Z,63.10
2018-02-11T15:59:14.480Z,64.10
2018-02-11T16:01:43.235Z,64.40
2018-02-11T16:04:12.130Z,67.90
2018-02-11T16:06:41.582Z,70.10
2018-02-11T16:09:10.306Z,70.80
2018-02-11T16:11:38.677Z,69.30
2018-02-11T16:14:07.374Z,68.90
2018-02-11T16:16:36.324Z,68.80
2018-02-11T16:19:05.619Z,74.00
2018-02-11T16:21:35.226Z,73.90
2018-02-11T16:24:04.746Z,75.30
2018-02-11T16:26:33.629Z,75.20
2018-02-11T16:29:02.466Z,74.60
2018-02-11T16:31:32.199Z,75.10
2018-02-11T16:36:37.613Z,76.80
2018-02-11T16:39:07.151Z,75.80
2018-02-11T16:41:40.648Z,76.60
2018-02-11T16:44:19.352Z,77.00
2018-02-11T16:46:54.425Z,77.50
2018-02-11T16:49:28.401Z,77.50
2018-02-11T16:51:59.482Z,77.40
2018-02-11T16:54:29.245Z,77.90
2018-02-11T16:56:58.552Z,79.00
2018-02-11T16:59:27.757Z,80.30
2018-02-11T17:01:58.172Z,80.30
2018-02-11T17:04:28.582Z,80.50
2018-02-11T17:06:58.387Z,80.50
2018-02-11T17:09:27.837Z,80.80
2018-02-11T17:11:58.142Z,81.20
2018-02-11T17:14:28.569Z,81.20
2018-02-11T17:16:57.855Z,81.40
2018-02-11T17:19:28.031Z,81.50
2018-02-11T17:21:58.087Z,81.90
2018-02-11T17:24:28.024Z,82.30
2018-02-11T17:26:57.544Z,81.80
2018-02-11T17:29:26.746Z,81.90
2018-02-11T17:31:56.787Z,82.80
2018-02-11T17:34:25.852Z,83.10
2018-02-11T17:36:54.838Z,83.50
2018-02-11T17:39:23.757Z,82.60
2018-02-11T17:41:52.836Z,82.60
2018-02-11T17:44:21.570Z,82.60
2018-02-11T17:46:50.310Z,82.50
2018-02-11T17:49:19.041Z,82.10
2018-02-11T17:51:48.170Z,82.20
2018-02-11T17:54:17.097Z,83.00
2018-02-11T17:56:45.789Z,82.90
2018-02-11T17:59:14.510Z,83.40
2018-02-11T18:01:43.460Z,83.70
2018-02-11T18:04:12.196Z,83.50
2018-02-11T18:06:40.904Z,83.40
2018-02-11T18:09:10.345Z,84.60
2018-02-11T18:11:39.046Z,84.60
2018-02-11T18:14:07.847Z,84.80
2018-02-11T18:16:36.914Z,84.70
2018-02-11T18:19:05.715Z,84.00
2018-02-11T18:21:34.375Z,84.90
2018-02-11T18:24:03.042Z,85.00
2018-02-11T18:26:32.511Z,85.20
2018-02-11T18:29:01.167Z,85.00
2018-02-11T18:31:29.819Z,85.00
2018-02-11T18:33:59.064Z,84.30
2018-02-11T18:36:27.708Z,84.30
2018-02-11T18:38:57.153Z,84.70
2018-02-11T18:41:25.809Z,84.70
2018-02-11T18:43:54.485Z,85.30
2018-02-11T18:46:24.208Z,85.00
2018-02-11T18:48:52.930Z,85.00
2018-02-11T18:51:21.799Z,84.50
2018-02-11T18:53:50.687Z,84.00
2018-02-11T18:56:19.412Z,84.50
2018-02-11T18:58:48.149Z,85.00
2018-02-11T19:01:16.976Z,84.10
2018-02-11T19:03:45.685Z,84.40
2018-02-11T19:06:14.391Z,84.40
2018-02-11T19:08:43.076Z,85.30
2018-02-11T19:11:11.792Z,85.50
2018-02-11T19:13:43.103Z,85.70
2018-02-11T19:16:13.468Z,85.70
2018-02-11T19:18:42.421Z,85.60
2018-02-11T19:21:11.120Z,85.80
2018-02-11T19:23:40.668Z,86.50
2018-02-11T19:26:09.400Z,86.10
2018-02-11T19:28:38.090Z,86.30
2018-02-11T19:31:06.765Z,86.60
2018-02-11T19:33:36.229Z,86.90
2018-02-11T19:36:05.682Z,86.40
2018-02-11T19:38:34.360Z,86.40
2018-02-11T19:41:03.071Z,87.10
2018-02-11T19:43:31.801Z,87.00
2018-02-11T19:46:00.743Z,86.60
2018-02-11T19:48:29.668Z,86.30
2018-02-11T19:50:58.394Z,86.60
2018-02-11T19:53:27.105Z,86.20
2018-02-11T19:55:55.789Z,86.40
2018-02-11T19:58:24.493Z,85.60
2018-02-11T20:00:53.224Z,86.50
2018-02-11T20:03:22.660Z,86.20
2018-02-11T20:05:51.342Z,86.60
2018-02-11T20:08:20.041Z,86.40
2018-02-11T20:10:48.728Z,86.70
2018-02-11T20:13:17.414Z,87.70
2018-02-11T20:15:46.129Z,87.80
2018-02-11T20:18:15.055Z,87.50
2018-02-11T20:20:43.718Z,88.10
2018-02-11T20:23:13.193Z,88.20
2018-02-11T20:25:41.993Z,88.20
2018-02-11T20:28:10.649Z,88.30
2018-02-11T20:30:39.308Z,87.80
2018-02-11T20:33:08.967Z,88.00
2018-02-11T20:35:37.633Z,87.90
2018-02-11T20:38:06.298Z,87.60
2018-02-11T20:40:34.996Z,87.10
2018-02-11T20:43:03.720Z,87.80
2018-02-11T20:45:32.416Z,87.20
2018-02-11T20:48:01.104Z,87.20
2018-02-11T20:50:29.782Z,87.30
2018-02-11T20:52:58.501Z,87.70
2018-02-11T20:55:27.952Z,88.30
2018-02-11T20:57:56.648Z,88.20
2018-02-11T21:00:25.393Z,88.40
2018-02-11T21:02:54.132Z,88.20
2018-02-11T21:05:23.775Z,88.90
2018-02-11T21:07:56.861Z,89.40
2018-02-11T21:10:26.297Z,89.70
2018-02-11T21:12:55.025Z,89.70
2018-02-11T21:15:23.716Z,89.90
2018-02-11T21:17:52.377Z,90.30
2018-02-11T21:20:23.642Z,90.10
2018-02-11T21:22:52.315Z,90.00
2018-02-11T21:25:20.970Z,90.30
2018-02-11T21:27:49.653Z,90.30
2018-02-11T21:30:19.088Z,90.20
2018-02-11T21:32:47.752Z,90.20
2018-02-11T21:35:16.473Z,90.40
2018-02-11T21:37:45.180Z,90.20
2018-02-11T21:40:13.837Z,89.20
2018-02-11T21:42:42.542Z,89.80
2018-02-11T21:45:11.226Z,90.00
2018-02-11T21:47:39.881Z,90.60
2018-02-11T21:50:08.567Z,90.60
2018-02-11T21:52:37.228Z,90.80
2018-02-11T21:55:06.652Z,90.40
2018-02-11T21:57:35.318Z,90.40
2018-02-11T22:00:04.432Z,90.10
2018-02-11T22:02:33.103Z,90.00
2018-02-11T22:05:02.542Z,90.50
2018-02-11T22:07:31.230Z,90.50
2018-02-11T22:09:59.904Z,90.50
2018-02-11T22:12:28.563Z,90.20
2018-02-11T22:14:57.255Z,90.20
2018-02-11T22:17:25.914Z,90.30
2018-02-11T22:19:54.566Z,90.40
2018-02-11T22:22:23.260Z,90.50
2018-02-11T22:24:51.940Z,90.40
2018-02-11T22:27:20.588Z,90.50
2018-02-11T22:29:49.261Z,90.50
2018-02-11T22:32:17.914Z,90.80
2018-02-11T22:34:46.612Z,90.90
2018-02-11T22:37:15.276Z,91.00
2018-02-11T22:39:43.964Z,91.10
2018-02-11T22:42:12.641Z,91.20
2018-02-11T22:44:41.298Z,91.30
2018-02-11T22:47:10.716Z,91.20
2018-02-11T22:49:39.399Z,91.20
2018-02-11T22:52:08.068Z,91.40
2018-02-11T22:54:37.489Z,91.00
2018-02-11T22:57:06.173Z,91.00
2018-02-11T22:59:35.608Z,91.10
2018-02-11T23:02:04.259Z,91.10
2018-02-11T23:04:33.694Z,90.90
2018-02-11T23:07:02.356Z,90.90
2018-02-11T23:09:31.789Z,90.80
2018-02-11T23:12:00.473Z,90.80
2018-02-11T23:14:29.151Z,91.00
2018-02-11T23:16:57.844Z,91.00
2018-02-11T23:19:25.889Z,90.70
2018-02-11T23:21:54.552Z,90.60
2018-02-11T23:24:23.212Z,90.50
2018-02-11T23:26:51.930Z,90.90
2018-02-11T23:29:20.620Z,90.70
2018-02-11T23:31:49.491Z,90.70
2018-02-11T23:34:17.972Z,90.60
2018-02-11T23:36:46.821Z,90.60
2018-02-11T23:39:15.541Z,90.50
2018-02-11T23:41:44.327Z,90.30
2018-02-11T23:44:13.004Z,90.40
2018-02-11T23:46:41.683Z,90.60
2018-02-11T23:49:10.393Z,90.60
2018-02-11T23:51:39.089Z,90.40
2018-02-11T23:54:07.774Z,90.50
2018-02-11T23:56:36.461Z,90.60
2018-02-11T23:59:05.183Z,90.50
